createdAt,value
2018-12-18T00:01:34.383Z,90.73
2018-12-18T00:04:02.723Z,91.03
2018-12-18T00:06:31.087Z,91.09
2018-12-18T00:08:59.441Z,90.78
2018-12-18T00:11:27.818Z,90.79
2018-12-18T00:13:56.155Z,90.99
2018-12-18T00:16:24.603Z,90.74
2018-12-18T00:18:52.952Z,90.67
2018-12-18T00:21:21.307Z,90.50
2018-12-18T00:23:49.660Z,90.63
2018-12-18T00:26:18.055Z,90.81
2018-12-18T00:28:46.395Z,90.38
2018-12-18T00:31:14.852Z,90.06
2018-12-18T00:33:46.035Z,89.98
2018-12-18T00:36:13.574Z,90.12
2018-12-18T00:38:41.941Z,89.74
2018-12-18T00:41:10.283Z,90.23
2018-12-18T00:43:38.639Z,90.06
2018-12-18T00:46:07.059Z,89.64
2018-12-18T00:48:35.431Z,89.60
2018-12-18T00:51:03.779Z,89.77
2018-12-18T00:53:32.152Z,89.97
2018-12-18T00:56:00.512Z,89.63
2018-12-18T00:58:28.887Z,90.00
2018-12-18T01:00:57.236Z,89.59
2018-12-18T01:03:25.615Z,89.34
2018-12-18T01:05:54.024Z,89.81
2018-12-18T01:08:22.386Z,89.94
2018-12-18T01:10:50.730Z,89.61
2018-12-18T01:13:19.130Z,89.57
2018-12-18T01:15:47.517Z,89.69
2018-12-18T01:18:15.891Z,89.28
2018-12-18T01:20:44.231Z,89.76
2018-12-18T01:23:12.606Z,89.37
2018-12-18T01:25:40.973Z,89.13
2018-12-18T01:28:09.341Z,89.32
2018-12-18T01:30:37.746Z,89.22
2018-12-18T01:33:06.167Z,89.44
2018-12-18T01:35:34.535Z,89.39
2018-12-18T01:38:03.062Z,89.12
2018-12-18T01:40:31.484Z,89.55
2018-12-18T01:42:59.990Z,89.41
2018-12-18T01:45:28.392Z,89.62
2018-12-18T01:47:56.899Z,89.70
2018-12-18T01:50:25.306Z,89.62
2018-12-18T01:52:53.676Z,89.34
2018-12-18T01:55:22.046Z,89.30
2018-12-18T01:57:50.450Z,89.12
2018-12-18T02:00:18.864Z,89.80
2018-12-18T02:02:47.230Z,89.54
2018-12-18T02:05:15.595Z,89.65
2018-12-18T02:07:43.947Z,89.66
2018-12-18T02:10:12.326Z,88.96
2018-12-18T02:12:40.677Z,89.56
2018-12-18T02:15:09.054Z,89.65
2018-12-18T02:17:37.417Z,89.30
2018-12-18T02:20:07.428Z,89.29
2018-12-18T02:22:35.777Z,89.40
2018-12-18T02:25:05.795Z,89.70
2018-12-18T02:27:34.141Z,89.95
2018-12-18T02:30:02.781Z,89.74
2018-12-18T02:32:31.135Z,89.77
2018-12-18T02:34:59.439Z,90.14
2018-12-18T02:37:27.741Z,89.94
2018-12-18T02:39:56.071Z,89.68
2018-12-18T02:42:24.442Z,89.78
2018-12-18T02:44:52.793Z,89.87
2018-12-18T02:47:21.101Z,90.04
2018-12-18T02:49:49.418Z,90.61
2018-12-18T02:52:17.731Z,90.62
2018-12-18T02:54:46.045Z,90.44
2018-12-18T02:57:14.343Z,90.71
2018-12-18T02:59:42.660Z,91.19
2018-12-18T03:02:11.010Z,91.08
2018-12-18T03:04:39.470Z,90.86
2018-12-18T03:07:07.930Z,91.14
2018-12-18T03:09:36.235Z,90.96
2018-12-18T03:12:04.738Z,90.92
2018-12-18T03:14:33.062Z,91.29
2018-12-18T03:17:01.368Z,91.25
2018-12-18T03:19:29.690Z,91.08
2018-12-18T03:21:57.988Z,91.38
2018-12-18T03:24:26.307Z,91.27
2018-12-18T03:26:54.690Z,91.66
2018-12-18T03:29:23.360Z,91.96
2018-12-18T03:34:39.615Z,92.11
2018-12-18T03:37:08.058Z,92.67
2018-12-18T03:39:36.383Z,92.79
2018-12-18T03:42:04.812Z,92.79
2018-12-18T03:44:33.131Z,92.87
2018-12-18T03:47:01.441Z,92.91
2018-12-18T03:49:29.773Z,93.43
2018-12-18T03:51:58.092Z,93.74
2018-12-18T03:54:26.399Z,93.61
2018-12-18T03:56:54.712Z,93.74
2018-12-18T03:59:23.018Z,93.64
2018-12-18T04:01:51.332Z,93.96
2018-12-18T04:04:19.694Z,94.13
2018-12-18T04:06:48.046Z,93.85
2018-12-18T04:09:16.343Z,94.47
2018-12-18T04:11:50.133Z,94.40
2018-12-18T04:14:18.436Z,94.99
2018-12-18T04:16:46.862Z,94.45
2018-12-18T04:19:15.165Z,95.11
2018-12-18T04:21:43.492Z,94.48
2018-12-18T04:24:11.792Z,94.83
2018-12-18T04:26:40.119Z,95.37
2018-12-18T04:29:08.416Z,95.62
2018-12-18T04:31:36.814Z,95.44
2018-12-18T04:34:05.141Z,95.52
2018-12-18T04:36:33.445Z,95.69
2018-12-18T04:39:01.748Z,95.90
2018-12-18T04:41:30.157Z,95.93
2018-12-18T04:43:58.459Z,95.96
2018-12-18T04:46:26.770Z,95.91
2018-12-18T04:48:55.074Z,96.45
2018-12-18T04:51:23.393Z,96.31
2018-12-18T04:53:51.684Z,96.25
2018-12-18T04:56:20.066Z,96.44
2018-12-18T04:58:48.365Z,96.36
2018-12-18T05:01:16.694Z,96.90
2018-12-18T05:03:45.007Z,96.97
2018-12-18T05:06:13.329Z,96.95
2018-12-18T05:08:41.650Z,97.24
2018-12-18T05:11:09.966Z,96.95
2018-12-18T05:13:38.272Z,97.37
2018-12-18T05:16:06.582Z,97.42
2018-12-18T05:18:34.898Z,96.96
2018-12-18T05:21:03.204Z,97.65
2018-12-18T05:23:31.519Z,97.32
2018-12-18T05:25:59.822Z,97.86
2018-12-18T05:28:28.130Z,97.83
2018-12-18T05:30:56.448Z,97.93
2018-12-18T05:33:24.762Z,97.71
2018-12-18T05:35:53.054Z,97.81
2018-12-18T05:38:21.389Z,97.65
2018-12-18T05:40:49.697Z,97.99
2018-12-18T05:43:17.998Z,98.08
2018-12-18T05:45:46.297Z,98.19
2018-12-18T05:48:14.626Z,97.83
2018-12-18T05:50:42.926Z,97.94
2018-12-18T05:53:11.253Z,98.22
2018-12-18T05:55:39.558Z,98.34
2018-12-18T05:58:07.881Z,97.74
2018-12-18T06:00:36.181Z,98.08
2018-12-18T06:03:04.515Z,98.17
2018-12-18T06:05:32.913Z,98.10
2018-12-18T06:08:01.230Z,98.04
2018-12-18T06:10:29.533Z,98.43
2018-12-18T06:12:57.843Z,98.06
2018-12-18T06:15:26.252Z,98.07
2018-12-18T06:17:54.578Z,98.09
2018-12-18T06:20:22.880Z,98.36
2018-12-18T06:22:51.191Z,97.78
2018-12-18T06:25:19.505Z,98.38
2018-12-18T06:27:47.828Z,98.08
2018-12-18T06:30:16.184Z,98.09
2018-12-18T06:32:44.502Z,98.33
2018-12-18T06:35:12.873Z,97.99
2018-12-18T06:37:41.209Z,98.08
2018-12-18T06:40:09.585Z,97.93
2018-12-18T06:42:37.953Z,98.03
2018-12-18T06:45:07.656Z,98.16
2018-12-18T06:47:35.954Z,98.35
2018-12-18T06:50:04.643Z,98.03
2018-12-18T06:52:32.935Z,98.02
2018-12-18T06:55:01.275Z,97.97
2018-12-18T06:57:29.579Z,97.55
2018-12-18T06:59:57.894Z,97.56
2018-12-18T07:02:26.210Z,97.56
2018-12-18T07:04:54.541Z,97.70
2018-12-18T07:07:22.884Z,97.66
2018-12-18T07:09:51.197Z,97.28
2018-12-18T07:12:19.499Z,97.25
2018-12-18T07:14:47.830Z,97.12
2018-12-18T07:17:16.119Z,97.34
2018-12-18T07:19:44.441Z,97.56
2018-12-18T07:22:13.316Z,97.23
2018-12-18T07:24:41.866Z,97.25
2018-12-18T07:27:10.166Z,97.25
2018-12-18T07:29:38.501Z,97.80
2018-12-18T07:32:06.826Z,97.64
2018-12-18T07:34:35.286Z,97.16
2018-12-18T07:37:03.582Z,97.39
2018-12-18T07:39:31.910Z,97.40
2018-12-18T07:42:00.214Z,97.04
2018-12-18T07:44:28.541Z,97.06
2018-12-18T07:46:56.864Z,96.94
2018-12-18T07:49:25.185Z,96.80
2018-12-18T07:51:53.477Z,96.45
2018-12-18T07:54:21.812Z,96.48
2018-12-18T07:56:50.391Z,96.63
2018-12-18T07:59:18.698Z,96.69
2018-12-18T08:01:47.070Z,96.02
2018-12-18T08:04:15.455Z,96.33
2018-12-18T08:06:43.742Z,96.41
2018-12-18T08:09:12.058Z,96.32
2018-12-18T08:11:40.463Z,95.98
2018-12-18T08:14:08.762Z,95.92
2018-12-18T08:19:24.878Z,96.25
2018-12-18T08:21:53.173Z,95.98
2018-12-18T08:24:21.518Z,95.94
2018-12-18T08:26:59.946Z,95.68
2018-12-18T08:29:28.263Z,95.63
2018-12-18T08:31:56.582Z,95.30
2018-12-18T08:34:24.891Z,95.47
2018-12-18T08:36:53.238Z,95.20
2018-12-18T08:39:21.552Z,95.46
2018-12-18T08:41:49.885Z,95.20
2018-12-18T08:44:18.197Z,95.29
2018-12-18T08:46:47.235Z,95.08
2018-12-18T08:49:15.543Z,95.39
2018-12-18T08:51:43.854Z,94.75
2018-12-18T08:54:12.166Z,94.86
2018-12-18T08:56:40.496Z,94.89
2018-12-18T08:59:08.821Z,94.27
2018-12-18T09:01:37.117Z,94.29
2018-12-18T09:04:05.420Z,94.42
2018-12-18T09:06:33.753Z,94.25
2018-12-18T09:09:02.042Z,93.91
2018-12-18T09:11:30.384Z,93.81
2018-12-18T09:13:58.699Z,94.18
2018-12-18T09:16:32.631Z,93.25
2018-12-18T09:19:01.022Z,92.97
2018-12-18T09:21:29.356Z,93.18
2018-12-18T09:23:57.642Z,93.19
2018-12-18T09:26:25.940Z,92.50
2018-12-18T09:28:54.274Z,92.34
2018-12-18T09:31:22.585Z,92.05
2018-12-18T09:33:50.885Z,92.11
2018-12-18T09:36:19.190Z,91.11
2018-12-18T09:38:52.989Z,91.39
2018-12-18T09:41:25.248Z,91.04
2018-12-18T09:46:46.543Z,91.03
2018-12-18T09:49:14.838Z,90.10
2018-12-18T09:51:43.164Z,90.30
2018-12-18T09:54:11.549Z,90.01
2018-12-18T09:56:57.566Z,90.47
2018-12-18T09:59:25.963Z,89.84
2018-12-18T10:01:54.341Z,89.76
2018-12-18T10:04:22.743Z,89.71
2018-12-18T10:06:51.057Z,89.43
2018-12-18T10:09:19.398Z,89.44
2018-12-18T10:11:47.707Z,89.25
2018-12-18T10:14:16.034Z,88.84
2018-12-18T10:16:44.509Z,89.03
2018-12-18T10:19:12.814Z,88.51
2018-12-18T10:21:41.161Z,88.33
2018-12-18T10:24:09.538Z,88.17
2018-12-18T10:26:37.869Z,88.42
2018-12-18T10:29:06.181Z,87.97
2018-12-18T10:31:34.568Z,87.91
2018-12-18T10:34:02.953Z,87.52
2018-12-18T10:36:31.271Z,87.61
2018-12-18T10:38:59.727Z,87.50
2018-12-18T10:41:28.189Z,87.60
2018-12-18T10:43:56.502Z,86.93
2018-12-18T10:46:24.854Z,86.73
2018-12-18T10:48:53.410Z,86.66
2018-12-18T10:51:21.914Z,86.73
2018-12-18T10:53:50.234Z,86.38
2018-12-18T10:56:18.578Z,86.67
2018-12-18T10:58:46.965Z,86.41
2018-12-18T11:04:05.918Z,86.32
2018-12-18T11:06:34.233Z,85.73
2018-12-18T11:09:02.795Z,86.03
2018-12-18T11:11:31.178Z,85.88
2018-12-18T11:13:59.553Z,85.58
2018-12-18T11:16:27.851Z,85.44
2018-12-18T11:18:56.164Z,85.39
2018-12-18T11:21:24.589Z,85.25
2018-12-18T11:23:52.971Z,85.19
2018-12-18T11:26:21.342Z,84.51
2018-12-18T11:28:49.726Z,84.40
2018-12-18T11:31:18.103Z,84.98
2018-12-18T11:33:46.418Z,84.48
2018-12-18T11:36:16.720Z,83.78
2018-12-18T11:38:45.171Z,84.23
2018-12-18T11:41:13.567Z,83.61
2018-12-18T11:43:41.947Z,83.04
2018-12-18T11:46:10.454Z,82.37
2018-12-18T11:48:38.908Z,82.84
2018-12-18T11:51:07.281Z,82.12
2018-12-18T11:53:35.598Z,82.37
2018-12-18T11:56:03.984Z,81.94
2018-12-18T11:58:32.441Z,81.76
2018-12-18T12:01:00.816Z,81.21
2018-12-18T12:03:29.096Z,81.24
2018-12-18T12:05:57.455Z,81.21
2018-12-18T12:08:25.748Z,81.56
2018-12-18T12:10:54.119Z,81.67
2018-12-18T12:13:22.486Z,81.73
2018-12-18T12:15:50.798Z,81.73
2018-12-18T12:18:19.098Z,82.40
2018-12-18T12:20:47.640Z,82.33
2018-12-18T12:23:15.938Z,83.26
2018-12-18T12:25:44.286Z,83.51
2018-12-18T12:28:12.655Z,83.42
2018-12-18T12:30:41.040Z,83.92
2018-12-18T12:33:09.585Z,84.63
2018-12-18T12:35:38.002Z,84.75
2018-12-18T12:38:06.309Z,85.00
2018-12-18T12:40:34.609Z,85.21
2018-12-18T12:43:02.946Z,85.76
2018-12-18T12:45:31.936Z,85.75
2018-12-18T12:48:00.211Z,85.51
2018-12-18T12:50:28.803Z,85.93
2018-12-18T12:52:57.371Z,86.34
2018-12-18T12:55:25.690Z,85.92
2018-12-18T12:57:54.155Z,86.12
2018-12-18T13:00:22.522Z,86.13
2018-12-18T13:02:50.817Z,85.24
2018-12-18T13:05:19.133Z,85.28
2018-12-18T13:07:47.445Z,85.10
2018-12-18T13:10:15.750Z,85.67
2018-12-18T13:12:44.090Z,84.51
2018-12-18T13:15:12.398Z,84.42
2018-12-18T13:17:40.709Z,84.25
2018-12-18T13:20:09.365Z,84.46
2018-12-18T13:22:37.707Z,83.98
2018-12-18T13:25:06.117Z,84.43
2018-12-18T13:27:34.471Z,84.29
2018-12-18T13:30:02.750Z,84.30
2018-12-18T13:32:31.062Z,83.98
2018-12-18T13:34:59.508Z,83.67
2018-12-18T13:37:27.885Z,83.87
2018-12-18T13:39:56.210Z,84.24
2018-12-18T13:42:24.526Z,84.85
2018-12-18T13:44:52.918Z,84.71
2018-12-18T13:47:27.027Z,84.76
2018-12-18T13:49:51.861Z,85.06
2018-12-18T13:52:20.203Z,85.30
2018-12-18T13:54:48.498Z,86.10
2018-12-18T13:57:16.878Z,86.65
2018-12-18T13:59:45.315Z,87.41
2018-12-18T14:02:13.660Z,87.99
2018-12-18T14:04:42.110Z,88.25
2018-12-18T14:07:10.583Z,88.27
2018-12-18T14:09:38.947Z,88.35
2018-12-18T14:12:07.349Z,88.39
2018-12-18T14:14:35.643Z,88.42
2018-12-18T14:17:04.101Z,88.42
2018-12-18T14:19:32.502Z,89.17
2018-12-18T14:22:00.856Z,88.73
2018-12-18T14:24:29.238Z,88.66
2018-12-18T14:26:57.878Z,88.47
2018-12-18T14:29:26.213Z,88.55
2018-12-18T14:31:54.530Z,89.22
2018-12-18T14:34:22.829Z,88.81
2018-12-18T14:36:56.259Z,89.53
2018-12-18T14:39:21.451Z,89.80
2018-12-18T14:41:49.764Z,89.58
2018-12-18T14:44:18.062Z,89.82
2018-12-18T14:46:46.401Z,89.45
2018-12-18T14:49:14.794Z,89.61
2018-12-18T14:51:43.102Z,89.75
2018-12-18T14:54:11.661Z,90.16
2018-12-18T14:56:40.614Z,90.49
2018-12-18T14:59:08.993Z,91.03
2018-12-18T15:01:37.295Z,90.63
2018-12-18T15:04:05.650Z,91.60
2018-12-18T15:06:34.019Z,91.79
2018-12-18T15:09:02.499Z,91.60
2018-12-18T15:11:30.853Z,91.32
2018-12-18T15:13:59.267Z,91.61
2018-12-18T15:16:27.580Z,91.28
2018-12-18T15:18:55.905Z,91.89
2018-12-18T15:21:24.297Z,91.84
2018-12-18T15:23:52.688Z,91.97
2018-12-18T15:26:20.976Z,91.99
2018-12-18T15:28:49.334Z,92.51
2018-12-18T15:31:17.711Z,93.02
2018-12-18T15:33:46.093Z,92.96
2018-12-18T15:36:14.482Z,93.84
2018-12-18T15:38:42.830Z,93.69
2018-12-18T15:41:11.168Z,94.08
2018-12-18T15:43:39.628Z,94.36
2018-12-18T15:46:08.099Z,94.16
2018-12-18T15:48:36.595Z,94.45
2018-12-18T15:51:04.921Z,94.88
2018-12-18T15:53:33.253Z,94.89
2018-12-18T15:56:01.542Z,94.84
2018-12-18T15:58:29.888Z,95.25
2018-12-18T16:00:58.181Z,95.40
2018-12-18T16:03:26.497Z,95.40
2018-12-18T16:05:54.798Z,95.34
2018-12-18T16:08:23.271Z,96.06
2018-12-18T16:10:51.588Z,96.12
2018-12-18T16:13:19.967Z,96.28
2018-12-18T16:15:48.268Z,96.19
2018-12-18T16:18:16.608Z,96.37
2018-12-18T16:20:44.996Z,96.51
2018-12-18T16:23:13.297Z,96.61
2018-12-18T16:25:41.654Z,96.66
2018-12-18T16:28:10.036Z,96.70
2018-12-18T16:30:38.329Z,96.69
2018-12-18T16:33:06.793Z,96.95
2018-12-18T16:35:35.262Z,97.15
2018-12-18T16:38:03.619Z,97.37
2018-12-18T16:40:32.035Z,97.52
2018-12-18T16:43:00.415Z,97.36
2018-12-18T16:45:28.773Z,97.63
2018-12-18T16:47:57.071Z,97.73
2018-12-18T16:50:26.642Z,98.12
2018-12-18T16:52:55.232Z,97.73
2018-12-18T16:55:23.566Z,98.04
2018-12-18T16:57:52.010Z,98.54
2018-12-18T17:00:20.393Z,98.89
2018-12-18T17:02:48.942Z,98.94
2018-12-18T17:05:17.302Z,99.11
2018-12-18T17:07:45.663Z,98.87
2018-12-18T17:10:13.969Z,99.30
2018-12-18T17:15:27.367Z,99.45
2018-12-18T17:17:55.834Z,99.56
2018-12-18T17:20:24.150Z,99.53
2018-12-18T17:22:52.454Z,99.53
2018-12-18T17:25:20.772Z,99.80
2018-12-18T17:27:49.138Z,99.44
2018-12-18T17:30:17.479Z,100.00
2018-12-18T17:32:45.802Z,99.80
2018-12-18T17:35:14.130Z,99.99
2018-12-18T17:37:42.450Z,100.00
2018-12-18T17:40:10.938Z,100.00
2018-12-18T17:42:39.327Z,100.00
2018-12-18T17:45:08.718Z,100.00
2018-12-18T17:47:37.050Z,100.00
2018-12-18T17:50:07.048Z,100.00
2018-12-18T17:52:35.365Z,100.00
2018-12-18T17:55:03.872Z,100.00
2018-12-18T17:57:32.186Z,100.00
2018-12-18T18:00:00.626Z,100.00
2018-12-18T18:02:29.014Z,100.00
2018-12-18T18:04:57.329Z,100.00
2018-12-18T18:07:25.771Z,100.00
2018-12-18T18:09:54.101Z,100.00
2018-12-18T18:12:22.454Z,100.00
2018-12-18T18:14:50.803Z,100.00
2018-12-18T18:17:19.190Z,100.00
2018-12-18T18:19:47.520Z,100.00
2018-12-18T18:22:15.937Z,100.00
2018-12-18T18:24:44.250Z,100.00
2018-12-18T18:27:12.702Z,100.00
2018-12-18T18:29:41.018Z,100.00
2018-12-18T18:32:09.358Z,100.00
2018-12-18T18:34:37.692Z,100.00
2018-12-18T18:37:09.802Z,100.00
2018-12-18T18:39:38.182Z,100.00
2018-12-18T18:42:06.559Z,100.00
2018-12-18T18:44:34.853Z,100.00
2018-12-18T18:47:03.183Z,100.00
2018-12-18T18:49:31.702Z,100.00
2018-12-18T18:52:00.017Z,100.00
2018-12-18T18:54:34.107Z,100.00
2018-12-18T18:57:03.383Z,100.00
2018-12-18T18:59:37.512Z,100.00
2018-12-18T19:02:17.127Z,100.00
2018-12-18T19:04:45.465Z,100.00
2018-12-18T19:07:13.782Z,100.00
2018-12-18T19:09:42.219Z,100.00
2018-12-18T19:12:10.546Z,100.00
2018-12-18T19:14:38.871Z,100.00
2018-12-18T19:17:07.226Z,100.00
2018-12-18T19:19:36.888Z,100.00
2018-12-18T19:22:06.745Z,100.00
2018-12-18T19:24:35.457Z,100.00
2018-12-18T19:27:04.197Z,100.00
2018-12-18T19:29:33.004Z,100.00
2018-12-18T19:32:02.133Z,100.00
2018-12-18T19:34:37.495Z,100.00
2018-12-18T19:37:08.465Z,100.00
2018-12-18T19:39:37.819Z,100.00
2018-12-18T19:42:06.556Z,100.00
2018-12-18T19:44:35.360Z,100.00
2018-12-18T19:47:04.454Z,100.00
2018-12-18T19:49:33.839Z,100.00
2018-12-18T19:52:02.975Z,100.00
2018-12-18T19:54:31.942Z,100.00
2018-12-18T19:57:00.740Z,100.00
2018-12-18T19:59:29.353Z,100.00
2018-12-18T20:01:57.871Z,100.00
2018-12-18T20:04:27.116Z,100.00
2018-12-18T20:06:55.662Z,100.00
2018-12-18T20:09:24.253Z,100.00
2018-12-18T20:11:52.720Z,100.00
2018-12-18T20:14:21.241Z,100.00
2018-12-18T20:16:49.814Z,100.00
2018-12-18T20:19:18.451Z,100.00
2018-12-18T20:21:47.096Z,100.00
2018-12-18T20:24:17.151Z,100.00
2018-12-18T20:26:46.485Z,100.00
2018-12-18T20:29:15.801Z,100.00
2018-12-18T20:31:44.803Z,100.00
2018-12-18T20:34:13.703Z,100.00
2018-12-18T20:36:45.587Z,100.00
2018-12-18T20:39:14.313Z,100.00
2018-12-18T20:41:43.152Z,100.00
2018-12-18T20:44:11.933Z,100.00
2018-12-18T20:46:40.582Z,100.00
2018-12-18T20:49:09.195Z,100.00
2018-12-18T20:51:37.872Z,100.00
2018-12-18T20:54:07.041Z,100.00
2018-12-18T20:56:39.123Z,100.00
2018-12-18T20:59:07.622Z,100.00
2018-12-18T21:01:36.555Z,100.00
2018-12-18T21:04:10.711Z,100.00
2018-12-18T21:06:39.412Z,100.00
2018-12-18T21:09:09.696Z,100.00
2018-12-18T21:11:39.194Z,100.00
2018-12-18T21:14:08.839Z,100.00
2018-12-18T21:16:37.672Z,100.00
2018-12-18T21:19:06.442Z,100.00
2018-12-18T21:21:34.979Z,100.00
2018-12-18T21:24:03.674Z,100.00
2018-12-18T21:26:32.404Z,100.00
2018-12-18T21:29:00.952Z,100.00
2018-12-18T21:31:30.181Z,100.00
2018-12-18T21:33:58.911Z,100.00
2018-12-18T21:36:27.607Z,100.00
2018-12-18T21:39:11.174Z,100.00
2018-12-18T21:41:39.733Z,100.00
2018-12-18T21:44:08.223Z,100.00
2018-12-18T21:46:37.520Z,100.00
2018-12-18T21:49:06.031Z,100.00
2018-12-18T21:51:34.651Z,100.00
2018-12-18T21:54:03.094Z,100.00
2018-12-18T21:56:31.520Z,100.00
2018-12-18T21:59:00.380Z,100.00
2018-12-18T22:01:29.153Z,100.00
2018-12-18T22:03:57.853Z,100.00
2018-12-18T22:06:26.574Z,100.00
2018-12-18T22:08:55.113Z,100.00
2018-12-18T22:11:23.679Z,100.00
2018-12-18T22:13:52.296Z,100.00
2018-12-18T22:16:26.907Z,100.00
2018-12-18T22:18:55.699Z,100.00
2018-12-18T22:21:24.157Z,100.00
2018-12-18T22:23:52.834Z,100.00
2018-12-18T22:26:21.762Z,100.00
2018-12-18T22:28:50.439Z,100.00
2018-12-18T22:31:23.999Z,100.00
2018-12-18T22:33:52.489Z,100.00
2018-12-18T22:36:21.112Z,100.00
2018-12-18T22:38:50.074Z,100.00
2018-12-18T22:41:18.522Z,100.00
2018-12-18T22:43:47.590Z,100.00
2018-12-18T22:46:16.059Z,100.00
2018-12-18T22:48:44.629Z,100.00
2018-12-18T22:51:13.428Z,100.00
2018-12-18T22:53:42.806Z,100.00
2018-12-18T22:56:11.636Z,100.00
2018-12-18T22:58:40.440Z,100.00
2018-12-18T23:01:14.580Z,100.00
2018-12-18T23:03:43.217Z,100.00
2018-12-18T23:06:11.985Z,100.00
2018-12-18T23:08:41.289Z,100.00
2018-12-18T23:11:10.274Z,100.00
2018-12-18T23:13:38.924Z,100.00
2018-12-18T23:16:07.846Z,100.00
2018-12-18T23:18:36.350Z,100.00
2018-12-18T23:21:05.070Z,100.00
2018-12-18T23:23:33.618Z,100.00
2018-12-18T23:26:02.773Z,100.00
2018-12-18T23:28:31.335Z,100.00
2018-12-18T23:30:59.775Z,100.00
2018-12-18T23:33:28.530Z,100.00
2018-12-18T23:35:57.033Z,100.00
2018-12-18T23:38:25.532Z,100.00
2018-12-18T23:40:54.291Z,100.00
2018-12-18T23:43:23.055Z,100.00
2018-12-18T23:45:51.549Z,100.00
2018-12-18T23:48:20.298Z,100.00
2018-12-18T23:50:48.807Z,100.00
2018-12-18T23:53:17.413Z,100.00
2018-12-18T23:55:46.210Z,100.00
2018-12-18T23:58:14.897Z,100.00
